sensor_id;sensor_type;location;lat;lon;timestamp;pressure;altitude;pressure_sealevel;temperature;humidity
3294;BME280;1659;51.470;6.770;2022-11-15T00:01:18;100742.00;;;10.56;77.21
3294;BME280;1659;51.470;6.770;2022-11-15T00:03:44;100740.19;;;10.58;77.07
3294;BME280;1659;51.470;6.770;2022-11-15T00:06:12;100732.22;;;10.62;77.14
3294;BME280;1659;51.470;6.770;2022-11-15T00:08:39;100731.31;;;10.64;77.09
3294;BME280;1659;51.470;6.770;2022-11-15T00:11:06;100732.13;;;10.68;77.14
3294;BME280;1659;51.470;6.770;2022-11-15T00:13:32;100727.66;;;10.70;77.37
3294;BME280;1659;51.470;6.770;2022-11-15T00:16:00;100729.38;;;10.71;77.19
3294;BME280;1659;51.470;6.770;2022-11-15T00:18:27;100735.53;;;10.73;77.32
3294;BME280;1659;51.470;6.770;2022-11-15T00:20:54;100731.94;;;10.75;77.71
3294;BME280;1659;51.470;6.770;2022-11-15T00:23:22;100729.28;;;10.77;77.78
3294;BME280;1659;51.470;6.770;2022-11-15T00:25:55;100733.66;;;10.78;77.76
3294;BME280;1659;51.470;6.770;2022-11-15T00:28:21;100738.06;;;10.79;77.95
3294;BME280;1659;51.470;6.770;2022-11-15T00:30:48;100738.91;;;10.80;77.79
3294;BME280;1659;51.470;6.770;2022-11-15T00:33:14;100732.72;;;10.82;77.97
3294;BME280;1659;51.470;6.770;2022-11-15T00:35:41;100724.72;;;10.85;78.08
3294;BME280;1659;51.470;6.770;2022-11-15T00:38:07;100722.94;;;10.86;78.14
3294;BME280;1659;51.470;6.770;2022-11-15T00:40:35;100722.88;;;10.89;78.05
3294;BME280;1659;51.470;6.770;2022-11-15T00:43:02;100716.69;;;10.90;78.14
3294;BME280;1659;51.470;6.770;2022-11-15T00:45:28;100708.72;;;10.91;78.20
3294;BME280;1659;51.470;6.770;2022-11-15T00:47:55;100718.38;;;10.94;78.35
3294;BME280;1659;51.470;6.770;2022-11-15T00:50:21;100713.94;;;10.94;78.37
3294;BME280;1659;51.470;6.770;2022-11-15T00:52:48;100705.09;;;10.95;78.53
3294;BME280;1659;51.470;6.770;2022-11-15T00:55:15;100705.97;;;10.98;78.30
3294;BME280;1659;51.470;6.770;2022-11-15T00:57:43;100704.16;;;11.00;78.59
3294;BME280;1659;51.470;6.770;2022-11-15T01:00:11;100704.13;;;11.01;78.96
3294;BME280;1659;51.470;6.770;2022-11-15T01:02:37;100701.38;;;11.04;79.12
3294;BME280;1659;51.470;6.770;2022-11-15T01:05:05;100710.19;;;11.06;78.99
3294;BME280;1659;51.470;6.770;2022-11-15T01:07:31;100711.84;;;11.10;79.35
3294;BME280;1659;51.470;6.770;2022-11-15T01:09:58;100704.72;;;11.12;79.18
3294;BME280;1659;51.470;6.770;2022-11-15T01:12:24;100705.56;;;11.14;79.32
3294;BME280;1659;51.470;6.770;2022-11-15T01:14:52;100699.31;;;11.19;79.37
3294;BME280;1659;51.470;6.770;2022-11-15T01:17:19;100708.94;;;11.21;79.65
3294;BME280;1659;51.470;6.770;2022-11-15T01:19:45;100705.34;;;11.25;79.89
3294;BME280;1659;51.470;6.770;2022-11-15T01:22:12;100712.28;;;11.31;80.05
3294;BME280;1659;51.470;6.770;2022-11-15T01:24:38;100706.00;;;11.35;79.96
3294;BME280;1659;51.470;6.770;2022-11-15T01:27:05;100712.13;;;11.37;79.76
3294;BME280;1659;51.470;6.770;2022-11-15T01:29:32;100698.00;;;11.38;79.87
3294;BME280;1659;51.470;6.770;2022-11-15T01:32:00;100703.19;;;11.43;80.05
3294;BME280;1659;51.470;6.770;2022-11-15T01:34:26;100692.47;;;11.47;80.56
3294;BME280;1659;51.470;6.770;2022-11-15T01:36:53;100691.56;;;11.50;80.39
3294;BME280;1659;51.470;6.770;2022-11-15T01:39:19;100682.66;;;11.52;80.09
3294;BME280;1659;51.470;6.770;2022-11-15T01:41:46;100677.34;;;11.54;79.99
3294;BME280;1659;51.470;6.770;2022-11-15T01:44:36;100682.56;;;11.57;80.40
3294;BME280;1659;51.470;6.770;2022-11-15T01:47:09;100681.63;;;11.58;80.05
3294;BME280;1659;51.470;6.770;2022-11-15T01:49:39;100682.53;;;11.59;80.27
3294;BME280;1659;51.470;6.770;2022-11-15T01:52:10;100676.31;;;11.60;80.07
3294;BME280;1659;51.470;6.770;2022-11-15T01:54:39;100676.31;;;11.60;80.22
3294;BME280;1659;51.470;6.770;2022-11-15T01:57:08;100670.19;;;11.58;80.13
3294;BME280;1659;51.470;6.770;2022-11-15T01:59:36;100669.34;;;11.56;80.24
3294;BME280;1659;51.470;6.770;2022-11-15T02:02:05;100672.00;;;11.56;80.69
3294;BME280;1659;51.470;6.770;2022-11-15T02:04:33;100675.50;;;11.56;80.38
3294;BME280;1659;51.470;6.770;2022-11-15T02:07:02;100670.22;;;11.56;80.79
3294;BME280;1659;51.470;6.770;2022-11-15T02:09:30;100672.75;;;11.61;80.69
3294;BME280;1659;51.470;6.770;2022-11-15T02:11:57;100664.78;;;11.62;80.45
3294;BME280;1659;51.470;6.770;2022-11-15T02:14:27;100664.75;;;11.64;80.91
3294;BME280;1659;51.470;6.770;2022-11-15T02:16:59;100658.50;;;11.66;80.88
3294;BME280;1659;51.470;6.770;2022-11-15T02:19:56;100659.28;;;11.70;80.82
3294;BME280;1659;51.470;6.770;2022-11-15T02:22:37;100658.34;;;11.73;80.65
3294;BME280;1659;51.470;6.770;2022-11-15T02:25:32;100659.19;;;11.75;80.90
3294;BME280;1659;51.470;6.770;2022-11-15T02:28:17;100648.56;;;11.76;80.65
3294;BME280;1659;51.470;6.770;2022-11-15T02:30:55;100644.94;;;11.79;80.58
3294;BME280;1659;51.470;6.770;2022-11-15T02:33:31;100651.06;;;11.81;80.62
3294;BME280;1659;51.470;6.770;2022-11-15T02:36:02;100656.31;;;11.82;80.76
3294;BME280;1659;51.470;6.770;2022-11-15T02:38:36;100658.97;;;11.82;80.77
3294;BME280;1659;51.470;6.770;2022-11-15T02:41:09;100661.59;;;11.84;80.84
3294;BME280;1659;51.470;6.770;2022-11-15T02:43:40;100655.38;;;11.86;80.63
3294;BME280;1659;51.470;6.770;2022-11-15T02:46:28;100651.78;;;11.87;80.87
3294;BME280;1659;51.470;6.770;2022-11-15T02:49:15;100646.50;;;11.87;80.76
3294;BME280;1659;51.470;6.770;2022-11-15T02:51:43;100641.16;;;11.89;80.53
3294;BME280;1659;51.470;6.770;2022-11-15T02:54:15;100650.81;;;11.92;80.90
3294;BME280;1659;51.470;6.770;2022-11-15T02:56:44;100645.44;;;11.95;80.41
3294;BME280;1659;51.470;6.770;2022-11-15T02:59:24;100644.47;;;11.99;80.46
3294;BME280;1659;51.470;6.770;2022-11-15T03:02:08;100647.03;;;12.02;80.72
3294;BME280;1659;51.470;6.770;2022-11-15T03:04:44;100634.63;;;12.04;80.56
3294;BME280;1659;51.470;6.770;2022-11-15T03:07:14;100643.38;;;12.07;80.87
3294;BME280;1659;51.470;6.770;2022-11-15T03:09:49;100631.88;;;12.07;80.87
3294;BME280;1659;51.470;6.770;2022-11-15T03:12:24;100634.53;;;12.07;80.37
3294;BME280;1659;51.470;6.770;2022-11-15T03:14:54;100645.03;;;12.10;80.48
3294;BME280;1659;51.470;6.770;2022-11-15T03:17:28;100631.72;;;12.13;80.97
3294;BME280;1659;51.470;6.770;2022-11-15T03:19:58;100634.31;;;12.16;80.73
3294;BME280;1659;51.470;6.770;2022-11-15T03:22:28;100629.78;;;12.20;80.93
3294;BME280;1659;51.470;6.770;2022-11-15T03:24:58;100639.34;;;12.25;80.90
3294;BME280;1659;51.470;6.770;2022-11-15T03:27:31;100636.66;;;12.27;80.64
3294;BME280;1659;51.470;6.770;2022-11-15T03:30:02;100632.16;;;12.29;80.67
3294;BME280;1659;51.470;6.770;2022-11-15T03:32:33;100633.84;;;12.32;80.79
3294;BME280;1659;51.470;6.770;2022-11-15T03:35:05;100637.28;;;12.35;80.70
3294;BME280;1659;51.470;6.770;2022-11-15T03:37:35;100622.28;;;12.36;80.92
3294;BME280;1659;51.470;6.770;2022-11-15T03:40:04;100625.75;;;12.38;81.20
3294;BME280;1659;51.470;6.770;2022-11-15T03:42:36;100622.06;;;12.42;81.02
3294;BME280;1659;51.470;6.770;2022-11-15T03:45:13;100619.38;;;12.43;80.81
3294;BME280;1659;51.470;6.770;2022-11-15T03:47:45;100618.50;;;12.44;80.91
3294;BME280;1659;51.470;6.770;2022-11-15T03:50:16;100622.84;;;12.45;81.12
3294;BME280;1659;51.470;6.770;2022-11-15T03:52:44;100623.63;;;12.49;80.88
3294;BME280;1659;51.470;6.770;2022-11-15T03:55:15;100615.69;;;12.49;80.73
3294;BME280;1659;51.470;6.770;2022-11-15T03:57:42;100619.19;;;12.51;80.93
3294;BME280;1659;51.470;6.770;2022-11-15T04:00:10;100622.69;;;12.52;81.07
3294;BME280;1659;51.470;6.770;2022-11-15T04:02:37;100620.00;;;12.53;81.12
3294;BME280;1659;51.470;6.770;2022-11-15T04:05:05;100613.00;;;12.51;80.90
3294;BME280;1659;51.470;6.770;2022-11-15T04:07:32;100613.00;;;12.51;81.15
3294;BME280;1659;51.470;6.770;2022-11-15T04:09:58;100612.13;;;12.50;81.43
3294;BME280;1659;51.470;6.770;2022-11-15T04:12:32;100609.44;;;12.52;81.49
3294;BME280;1659;51.470;6.770;2022-11-15T04:15:00;100603.31;;;12.50;81.43
3294;BME280;1659;51.470;6.770;2022-11-15T04:17:40;100605.03;;;12.51;81.51
3294;BME280;1659;51.470;6.770;2022-11-15T04:20:12;100619.09;;;12.53;81.54
3294;BME280;1659;51.470;6.770;2022-11-15T04:22:58;100607.56;;;12.55;81.48
3294;BME280;1659;51.470;6.770;2022-11-15T04:25:43;100611.00;;;12.59;81.16
3294;BME280;1659;51.470;6.770;2022-11-15T04:28:10;100603.00;;;12.60;81.52
3294;BME280;1659;51.470;6.770;2022-11-15T04:30:37;100606.47;;;12.62;81.37
3294;BME280;1659;51.470;6.770;2022-11-15T04:33:04;100603.72;;;12.65;81.36
3294;BME280;1659;51.470;6.770;2022-11-15T04:35:32;100611.66;;;12.67;81.06
3294;BME280;1659;51.470;6.770;2022-11-15T04:37:59;100609.84;;;12.68;81.48
3294;BME280;1659;51.470;6.770;2022-11-15T04:40:26;100608.00;;;12.70;81.48
3294;BME280;1659;51.470;6.770;2022-11-15T04:42:52;100611.50;;;12.72;80.95
3294;BME280;1659;51.470;6.770;2022-11-15T04:45:19;100599.97;;;12.73;80.93
3294;BME280;1659;51.470;6.770;2022-11-15T04:47:46;100608.78;;;12.73;81.06
3294;BME280;1659;51.470;6.770;2022-11-15T04:50:13;100601.69;;;12.74;80.89
3294;BME280;1659;51.470;6.770;2022-11-15T04:52:43;100605.25;;;12.74;80.87
3294;BME280;1659;51.470;6.770;2022-11-15T04:55:10;100607.84;;;12.76;81.20
3294;BME280;1659;51.470;6.770;2022-11-15T04:57:37;100606.06;;;12.76;80.99
3294;BME280;1659;51.470;6.770;2022-11-15T05:00:07;100604.19;;;12.80;80.82
3294;BME280;1659;51.470;6.770;2022-11-15T05:02:33;100609.47;;;12.80;80.84
3294;BME280;1659;51.470;6.770;2022-11-15T05:05:18;100603.28;;;12.81;81.07
3294;BME280;1659;51.470;6.770;2022-11-15T05:07:46;100601.53;;;12.80;81.10
3294;BME280;1659;51.470;6.770;2022-11-15T05:10:12;100605.97;;;12.79;80.74
3294;BME280;1659;51.470;6.770;2022-11-15T05:12:39;100608.63;;;12.79;81.13
3294;BME280;1659;51.470;6.770;2022-11-15T05:15:06;100613.03;;;12.79;81.13
3294;BME280;1659;51.470;6.770;2022-11-15T05:17:33;100605.06;;;12.79;81.21
3294;BME280;1659;51.470;6.770;2022-11-15T05:19:59;100610.38;;;12.79;81.27
3294;BME280;1659;51.470;6.770;2022-11-15T05:22:26;100610.38;;;12.79;81.02
3294;BME280;1659;51.470;6.770;2022-11-15T05:24:55;100600.72;;;12.78;80.94
3294;BME280;1659;51.470;6.770;2022-11-15T05:27:21;100607.81;;;12.77;81.17
3294;BME280;1659;51.470;6.770;2022-11-15T05:29:48;100601.56;;;12.78;81.11
3294;BME280;1659;51.470;6.770;2022-11-15T05:32:15;100591.91;;;12.77;81.19
3294;BME280;1659;51.470;6.770;2022-11-15T05:34:43;100596.31;;;12.77;81.51
3294;BME280;1659;51.470;6.770;2022-11-15T05:37:09;100595.44;;;12.76;81.18
3294;BME280;1659;51.470;6.770;2022-11-15T05:39:36;100595.50;;;12.75;81.60
3294;BME280;1659;51.470;6.770;2022-11-15T05:42:07;100599.03;;;12.74;81.67
3294;BME280;1659;51.470;6.770;2022-11-15T05:44:36;100595.56;;;12.72;81.42
3294;BME280;1659;51.470;6.770;2022-11-15T05:47:05;100599.16;;;12.71;81.73
3294;BME280;1659;51.470;6.770;2022-11-15T05:49:36;100604.47;;;12.71;81.44
3294;BME280;1659;51.470;6.770;2022-11-15T05:52:05;100593.91;;;12.69;81.76
3294;BME280;1659;51.470;6.770;2022-11-15T05:54:34;100598.34;;;12.69;82.00
3294;BME280;1659;51.470;6.770;2022-11-15T05:57:01;100592.16;;;12.68;82.20
3294;BME280;1659;51.470;6.770;2022-11-15T05:59:30;100589.50;;;12.68;82.17
3294;BME280;1659;51.470;6.770;2022-11-15T06:01:57;100586.91;;;12.66;82.31
3294;BME280;1659;51.470;6.770;2022-11-15T06:04:24;100595.75;;;12.67;82.19
3294;BME280;1659;51.470;6.770;2022-11-15T06:06:50;100587.78;;;12.67;82.22
3294;BME280;1659;51.470;6.770;2022-11-15T06:09:17;100600.16;;;12.66;82.12
3294;BME280;1659;51.470;6.770;2022-11-15T06:11:44;100602.97;;;12.62;82.35
3294;BME280;1659;51.470;6.770;2022-11-15T06:14:10;100608.31;;;12.60;82.62
3294;BME280;1659;51.470;6.770;2022-11-15T06:16:38;100603.03;;;12.59;82.84
3294;BME280;1659;51.470;6.770;2022-11-15T06:19:05;100609.28;;;12.56;82.75
3294;BME280;1659;51.470;6.770;2022-11-15T06:21:32;100609.34;;;12.55;82.93
3294;BME280;1659;51.470;6.770;2022-11-15T06:23:58;100613.78;;;12.54;82.89
3294;BME280;1659;51.470;6.770;2022-11-15T06:26:25;100611.13;;;12.54;83.61
3294;BME280;1659;51.470;6.770;2022-11-15T06:28:51;100616.41;;;12.54;83.26
3294;BME280;1659;51.470;6.770;2022-11-15T06:31:18;100618.22;;;12.54;83.12
3294;BME280;1659;51.470;6.770;2022-11-15T06:33:46;100614.66;;;12.55;83.67
3294;BME280;1659;51.470;6.770;2022-11-15T06:36:14;100621.69;;;12.56;83.59
3294;BME280;1659;51.470;6.770;2022-11-15T06:38:46;100615.53;;;12.55;83.54
3294;BME280;1659;51.470;6.770;2022-11-15T06:41:13;100601.41;;;12.55;83.04
3294;BME280;1659;51.470;6.770;2022-11-15T06:43:40;100610.22;;;12.55;83.44
3294;BME280;1659;51.470;6.770;2022-11-15T06:46:07;100619.88;;;12.56;83.23
3294;BME280;1659;51.470;6.770;2022-11-15T06:48:34;100622.53;;;12.56;83.54
3294;BME280;1659;51.470;6.770;2022-11-15T06:51:04;100622.53;;;12.56;83.47
3294;BME280;1659;51.470;6.770;2022-11-15T06:53:31;100628.78;;;12.55;83.08
3294;BME280;1659;51.470;6.770;2022-11-15T06:55:58;100627.84;;;12.56;83.45
3294;BME280;1659;51.470;6.770;2022-11-15T06:58:25;100626.97;;;12.56;83.49
3294;BME280;1659;51.470;6.770;2022-11-15T07:00:52;100625.25;;;12.55;83.41
3294;BME280;1659;51.470;6.770;2022-11-15T07:03:19;100633.22;;;12.55;83.62
3294;BME280;1659;51.470;6.770;2022-11-15T07:05:51;100629.66;;;12.54;83.50
3294;BME280;1659;51.470;6.770;2022-11-15T07:08:20;100630.59;;;12.53;83.42
3294;BME280;1659;51.470;6.770;2022-11-15T07:10:47;100640.28;;;12.54;83.54
3294;BME280;1659;51.470;6.770;2022-11-15T07:13:14;100651.81;;;12.53;83.43
3294;BME280;1659;51.470;6.770;2022-11-15T07:15:40;100651.81;;;12.53;83.54
3294;BME280;1659;51.470;6.770;2022-11-15T07:18:07;100648.25;;;12.53;83.96
3294;BME280;1659;51.470;6.770;2022-11-15T07:20:33;100646.50;;;12.53;83.89
3294;BME280;1659;51.470;6.770;2022-11-15T07:23:00;100664.94;;;12.56;83.80
3294;BME280;1659;51.470;6.770;2022-11-15T07:25:29;100660.53;;;12.57;83.57
3294;BME280;1659;51.470;6.770;2022-11-15T07:27:55;100660.50;;;12.58;83.46
3294;BME280;1659;51.470;6.770;2022-11-15T07:30:23;100657.81;;;12.60;83.79
3294;BME280;1659;51.470;6.770;2022-11-15T07:32:52;100663.94;;;12.62;83.38
3294;BME280;1659;51.470;6.770;2022-11-15T07:35:19;100667.41;;;12.64;83.59
3294;BME280;1659;51.470;6.770;2022-11-15T07:37:53;100662.06;;;12.65;83.35
3294;BME280;1659;51.470;6.770;2022-11-15T07:40:19;100671.69;;;12.68;83.17
3294;BME280;1659;51.470;6.770;2022-11-15T07:42:47;100675.16;;;12.70;83.02
3294;BME280;1659;51.470;6.770;2022-11-15T07:45:20;100671.56;;;12.73;82.98
3294;BME280;1659;51.470;6.770;2022-11-15T07:47:47;100675.06;;;12.73;82.40
3294;BME280;1659;51.470;6.770;2022-11-15T07:50:14;100685.63;;;12.75;82.35
3294;BME280;1659;51.470;6.770;2022-11-15T07:52:41;100680.34;;;12.75;82.04
3294;BME280;1659;51.470;6.770;2022-11-15T07:55:08;100673.41;;;12.71;81.75
3294;BME280;1659;51.470;6.770;2022-11-15T07:57:34;100692.06;;;12.66;81.83
3294;BME280;1659;51.470;6.770;2022-11-15T08:00:03;100693.16;;;12.59;82.21
3294;BME280;1659;51.470;6.770;2022-11-15T08:02:30;100700.41;;;12.52;82.17
3294;BME280;1659;51.470;6.770;2022-11-15T08:04:57;100718.31;;;12.44;82.69
3294;BME280;1659;51.470;6.770;2022-11-15T08:07:24;100727.44;;;12.34;82.68
3294;BME280;1659;51.470;6.770;2022-11-15T08:09:51;100722.47;;;12.21;82.58
3294;BME280;1659;51.470;6.770;2022-11-15T08:12:17;100733.56;;;12.01;82.87
3294;BME280;1659;51.470;6.770;2022-11-15T08:14:45;100727.06;;;11.77;83.42
3294;BME280;1659;51.470;6.770;2022-11-15T08:17:13;100730.28;;;11.52;84.52
3294;BME280;1659;51.470;6.770;2022-11-15T08:19:40;100721.91;;;11.33;85.01
3294;BME280;1659;51.470;6.770;2022-11-15T08:22:07;100725.75;;;11.20;85.69
3294;BME280;1659;51.470;6.770;2022-11-15T08:24:33;100717.13;;;11.10;85.85
3294;BME280;1659;51.470;6.770;2022-11-15T08:27:00;100720.78;;;11.05;86.06
3294;BME280;1659;51.470;6.770;2022-11-15T08:29:26;100720.88;;;11.00;86.08
3294;BME280;1659;51.470;6.770;2022-11-15T08:31:54;100728.84;;;10.97;86.46
3294;BME280;1659;51.470;6.770;2022-11-15T08:34:22;100719.22;;;10.94;86.74
3294;BME280;1659;51.470;6.770;2022-11-15T08:36:48;100714.81;;;10.95;86.97
3294;BME280;1659;51.470;6.770;2022-11-15T08:39:15;100710.34;;;10.97;87.04
3294;BME280;1659;51.470;6.770;2022-11-15T08:41:42;100706.78;;;11.00;87.03
3294;BME280;1659;51.470;6.770;2022-11-15T08:44:09;100706.72;;;11.03;87.54
3294;BME280;1659;51.470;6.770;2022-11-15T08:46:36;100700.50;;;11.05;87.52
3294;BME280;1659;51.470;6.770;2022-11-15T08:49:02;100693.34;;;11.09;87.65
3294;BME280;1659;51.470;6.770;2022-11-15T08:51:30;100692.38;;;11.13;88.05
3294;BME280;1659;51.470;6.770;2022-11-15T08:53:57;100688.66;;;11.22;88.18
3294;BME280;1659;51.470;6.770;2022-11-15T08:56:24;100679.69;;;11.29;88.02
3294;BME280;1659;51.470;6.770;2022-11-15T08:58:50;100680.47;;;11.34;87.65
3294;BME280;1659;51.470;6.770;2022-11-15T09:01:19;100677.69;;;11.39;87.77
3294;BME280;1659;51.470;6.770;2022-11-15T09:03:46;100679.41;;;11.41;87.70
3294;BME280;1659;51.470;6.770;2022-11-15T09:06:12;100682.03;;;11.43;87.70
3294;BME280;1659;51.470;6.770;2022-11-15T09:08:41;100675.81;;;11.44;87.95
3294;BME280;1659;51.470;6.770;2022-11-15T09:11:10;100681.03;;;11.47;88.12
3294;BME280;1659;51.470;6.770;2022-11-15T09:13:37;100677.44;;;11.49;87.95
3294;BME280;1659;51.470;6.770;2022-11-15T09:16:04;100672.09;;;11.51;88.00
3294;BME280;1659;51.470;6.770;2022-11-15T09:18:31;100672.91;;;11.55;88.12
3294;BME280;1659;51.470;6.770;2022-11-15T09:20:59;100672.72;;;11.62;88.43
3294;BME280;1659;51.470;6.770;2022-11-15T09:23:26;100668.94;;;11.73;88.22
3294;BME280;1659;51.470;6.770;2022-11-15T09:25:58;100671.19;;;11.88;87.72
3294;BME280;1659;51.470;6.770;2022-11-15T09:28:25;100660.88;;;12.13;87.74
3294;BME280;1659;51.470;6.770;2022-11-15T09:30:51;100666.50;;;12.34;87.71
3294;BME280;1659;51.470;6.770;2022-11-15T09:33:21;100656.75;;;12.65;87.36
3294;BME280;1659;51.470;6.770;2022-11-15T09:35:48;100655.66;;;13.02;86.55
3294;BME280;1659;51.470;6.770;2022-11-15T09:38:14;100660.94;;;13.32;85.92
3294;BME280;1659;51.470;6.770;2022-11-15T09:40:41;100658.13;;;13.65;85.20
3294;BME280;1659;51.470;6.770;2022-11-15T09:43:35;100656.38;;;13.91;84.86
3294;BME280;1659;51.470;6.770;2022-11-15T09:46:11;100646.88;;;14.09;83.98
3294;BME280;1659;51.470;6.770;2022-11-15T09:48:51;100644.69;;;14.20;83.03
3294;BME280;1659;51.470;6.770;2022-11-15T09:51:25;100634.97;;;14.21;81.73
3294;BME280;1659;51.470;6.770;2022-11-15T09:53:57;100618.22;;;14.42;81.86
3294;BME280;1659;51.470;6.770;2022-11-15T09:56:27;100616.69;;;14.60;81.17
3294;BME280;1659;51.470;6.770;2022-11-15T09:59:03;100611.69;;;14.75;79.99
3294;BME280;1659;51.470;6.770;2022-11-15T10:01:40;100609.41;;;14.65;78.00
3294;BME280;1659;51.470;6.770;2022-11-15T10:04:08;100614.03;;;14.60;77.82
3294;BME280;1659;51.470;6.770;2022-11-15T10:06:38;100605.25;;;14.57;77.03
3294;BME280;1659;51.470;6.770;2022-11-15T10:09:13;100611.44;;;14.57;76.38
3294;BME280;1659;51.470;6.770;2022-11-15T10:11:42;100605.38;;;14.53;75.00
3294;BME280;1659;51.470;6.770;2022-11-15T10:14:12;100593.81;;;14.54;74.65
3294;BME280;1659;51.470;6.770;2022-11-15T10:17:04;100588.75;;;14.72;73.98
3294;BME280;1659;51.470;6.770;2022-11-15T10:19:36;100592.91;;;14.79;73.14
3294;BME280;1659;51.470;6.770;2022-11-15T10:22:24;100595.34;;;14.85;72.43
3294;BME280;1659;51.470;6.770;2022-11-15T10:27:19;100592.44;;;15.14;70.32
3294;BME280;1659;51.470;6.770;2022-11-15T10:29:49;100585.94;;;15.21;70.28
3294;BME280;1659;51.470;6.770;2022-11-15T10:32:17;100578.19;;;15.37;69.42
3294;BME280;1659;51.470;6.770;2022-11-15T10:34:45;100569.22;;;15.60;68.77
3294;BME280;1659;51.470;6.770;2022-11-15T10:37:11;100563.88;;;15.82;68.81
3294;BME280;1659;51.470;6.770;2022-11-15T10:39:38;100565.69;;;16.00;67.03
3294;BME280;1659;51.470;6.770;2022-11-15T10:42:16;100553.56;;;16.14;66.14
3294;BME280;1659;51.470;6.770;2022-11-15T10:44:44;100559.81;;;16.13;64.12
3294;BME280;1659;51.470;6.770;2022-11-15T10:47:26;100557.25;;;16.11;63.93
3294;BME280;1659;51.470;6.770;2022-11-15T10:50:05;100551.06;;;16.30;63.86
3294;BME280;1659;51.470;6.770;2022-11-15T10:52:34;100558.91;;;16.33;62.68
3294;BME280;1659;51.470;6.770;2022-11-15T10:55:12;100547.72;;;16.24;62.15
3294;BME280;1659;51.470;6.770;2022-11-15T10:57:50;100548.31;;;16.31;61.90
3294;BME280;1659;51.470;6.770;2022-11-15T11:00:29;100541.41;;;16.27;60.91
3294;BME280;1659;51.470;6.770;2022-11-15T11:02:59;100535.41;;;16.22;60.57
3294;BME280;1659;51.470;6.770;2022-11-15T11:05:29;100529.59;;;16.33;60.71
3294;BME280;1659;51.470;6.770;2022-11-15T11:07:58;100533.41;;;16.46;60.50
3294;BME280;1659;51.470;6.770;2022-11-15T11:10:25;100525.56;;;16.62;60.45
3294;BME280;1659;51.470;6.770;2022-11-15T11:12:51;100527.38;;;16.98;60.51
3294;BME280;1659;51.470;6.770;2022-11-15T11:15:18;100521.63;;;17.25;59.77
3294;BME280;1659;51.470;6.770;2022-11-15T11:17:56;100522.72;;;17.21;57.99
3294;BME280;1659;51.470;6.770;2022-11-15T11:20:30;100518.38;;;17.01;56.01
3294;BME280;1659;51.470;6.770;2022-11-15T11:23:06;100520.41;;;16.95;55.47
3294;BME280;1659;51.470;6.770;2022-11-15T11:25:47;100519.63;;;16.93;55.69
3294;BME280;1659;51.470;6.770;2022-11-15T11:28:29;100521.69;;;17.06;55.33
3294;BME280;1659;51.470;6.770;2022-11-15T11:31:08;100517.03;;;16.92;54.45
3294;BME280;1659;51.470;6.770;2022-11-15T11:33:44;100519.63;;;16.74;54.90
3294;BME280;1659;51.470;6.770;2022-11-15T11:36:23;100509.03;;;16.73;55.26
3294;BME280;1659;51.470;6.770;2022-11-15T11:39:05;100510.38;;;16.82;54.95
3294;BME280;1659;51.470;6.770;2022-11-15T11:41:43;100504.31;;;16.78;55.05
3294;BME280;1659;51.470;6.770;2022-11-15T11:44:22;100515.59;;;16.85;55.27
3294;BME280;1659;51.470;6.770;2022-11-15T11:46:55;100507.53;;;16.67;54.76
3294;BME280;1659;51.470;6.770;2022-11-15T11:49:26;100516.16;;;16.72;54.97
3294;BME280;1659;51.470;6.770;2022-11-15T11:52:01;100511.56;;;16.57;54.52
3294;BME280;1659;51.470;6.770;2022-11-15T11:54:34;100503.63;;;16.36;55.18
3294;BME280;1659;51.470;6.770;2022-11-15T11:57:07;100504.16;;;16.26;55.29
3294;BME280;1659;51.470;6.770;2022-11-15T11:59:41;100495.78;;;16.14;55.13
3294;BME280;1659;51.470;6.770;2022-11-15T12:02:15;100494.84;;;16.15;54.55
3294;BME280;1659;51.470;6.770;2022-11-15T12:04:48;100500.09;;;16.17;53.99
3294;BME280;1659;51.470;6.770;2022-11-15T12:07:21;100492.91;;;16.19;53.87
3294;BME280;1659;51.470;6.770;2022-11-15T12:09:53;100494.91;;;16.33;54.23
3294;BME280;1659;51.470;6.770;2022-11-15T12:12:29;100497.78;;;16.28;53.19
3294;BME280;1659;51.470;6.770;2022-11-15T12:15:02;100490.88;;;16.24;52.72
3294;BME280;1659;51.470;6.770;2022-11-15T12:17:30;100491.25;;;16.16;52.46
3294;BME280;1659;51.470;6.770;2022-11-15T12:19:59;100477.25;;;16.30;52.42
3294;BME280;1659;51.470;6.770;2022-11-15T12:22:36;100472.94;;;16.47;51.56
3294;BME280;1659;51.470;6.770;2022-11-15T12:25:08;100477.75;;;16.38;50.80
3294;BME280;1659;51.470;6.770;2022-11-15T12:27:43;100464.38;;;16.21;50.23
3294;BME280;1659;51.470;6.770;2022-11-15T12:30:13;100456.03;;;16.10;50.32
3294;BME280;1659;51.470;6.770;2022-11-15T12:32:50;100451.63;;;16.09;50.07
3294;BME280;1659;51.470;6.770;2022-11-15T12:35:24;100440.09;;;16.08;50.00
3294;BME280;1659;51.470;6.770;2022-11-15T12:37:53;100445.44;;;16.27;50.50
3294;BME280;1659;51.470;6.770;2022-11-15T12:40:26;100441.63;;;16.50;50.25
3294;BME280;1659;51.470;6.770;2022-11-15T12:45:51;100419.66;;;16.82;48.94
3294;BME280;1659;51.470;6.770;2022-11-15T12:55:28;100406.56;;;16.94;47.34
3294;BME280;1659;51.470;6.770;2022-11-15T12:58:38;100391.72;;;17.06;47.11
3294;BME280;1659;51.470;6.770;2022-11-15T13:01:07;100384.00;;;17.17;46.75
3294;BME280;1659;51.470;6.770;2022-11-15T13:03:34;100380.34;;;17.20;46.45
3294;BME280;1659;51.470;6.770;2022-11-15T13:06:09;100374.66;;;17.26;46.75
3294;BME280;1659;51.470;6.770;2022-11-15T13:08:38;100377.88;;;17.33;46.82
3294;BME280;1659;51.470;6.770;2022-11-15T13:11:46;100377.16;;;17.29;46.43
3294;BME280;1659;51.470;6.770;2022-11-15T13:14:46;100358.78;;;17.41;46.56
3294;BME280;1659;51.470;6.770;2022-11-15T13:17:23;100359.53;;;17.76;46.79
3294;BME280;1659;51.470;6.770;2022-11-15T13:19:55;100360.50;;;17.91;46.64
3294;BME280;1659;51.470;6.770;2022-11-15T13:22:24;100355.03;;;17.77;46.84
3294;BME280;1659;51.470;6.770;2022-11-15T13:25:15;100337.88;;;17.31;47.38
3294;BME280;1659;51.470;6.770;2022-11-15T13:27:44;100347.78;;;16.96;48.25
3294;BME280;1659;51.470;6.770;2022-11-15T13:30:19;100364.09;;;16.72;48.84
3294;BME280;1659;51.470;6.770;2022-11-15T13:32:46;100354.31;;;16.36;49.19
3294;BME280;1659;51.470;6.770;2022-11-15T13:35:19;100355.88;;;16.04;50.03
3294;BME280;1659;51.470;6.770;2022-11-15T13:37:46;100351.88;;;15.76;50.43
3294;BME280;1659;51.470;6.770;2022-11-15T13:40:24;100339.69;;;15.52;51.28